Time;durP1;ratioP1;P1;durP2;ratioP2;P2;SDS_P1;SDS_P2;PMS_P1;PMS_P2;Temp;Humidity;BMP_temperature;BMP_pressure;BME280_temperature;BME280_humidity;BME280_pressure;Samples;Min_cycle;Max_cycle;Signal;HPM_P1;HPM_P2
2023/11/19 00:00:14;;;;;;;51.33;21.07;;;0.90;99.90;;;;;;4935608;29;20189;-83
2023/11/19 00:02:42;;;;;;;47.47;21.37;;;0.90;99.90;;;;;;4934465;29;20217;-84
2023/11/19 00:05:11;;;;;;;45.67;21.17;;;0.90;99.90;;;;;;4934765;29;20262;-84
2023/11/19 00:07:41;;;;;;;47.47;22.03;;;0.90;99.90;;;;;;4919043;29;20203;-82
2023/11/19 00:10:10;;;;;;;47.80;21.03;;;1.00;99.90;;;;;;4935916;29;20298;-83
2023/11/19 00:12:44;;;;;;;48.60;21.83;;;0.90;99.90;;;;;;4934541;29;20197;-83
2023/11/19 00:15:15;;;;;;;49.23;21.23;;;1.00;99.90;;;;;;4936047;29;20290;-81
2023/11/19 00:17:44;;;;;;;49.93;21.47;;;1.00;99.90;;;;;;4934361;29;20654;-82
2023/11/19 00:20:18;;;;;;;52.73;22.03;;;1.00;99.90;;;;;;4935950;29;20199;-82
2023/11/19 00:22:48;;;;;;;51.83;22.90;;;0.90;99.90;;;;;;4935992;29;20218;-83
2023/11/19 00:25:24;;;;;;;55.57;23.00;;;0.90;99.90;;;;;;4934421;29;20225;-83
2023/11/19 00:27:53;;;;;;;52.83;23.43;;;0.90;99.90;;;;;;4918637;29;20204;-82
2023/11/19 00:30:21;;;;;;;44.73;21.57;;;1.00;99.90;;;;;;4935912;29;20201;-82
2023/11/19 00:32:49;;;;;;;52.93;23.40;;;0.90;99.90;;;;;;4934065;29;20219;-83
2023/11/19 00:35:16;;;;;;;50.13;21.40;;;1.10;99.90;;;;;;4935659;29;20194;-82
2023/11/19 00:37:43;;;;;;;51.03;22.50;;;1.00;99.90;;;;;;4934477;29;20220;-83
2023/11/19 00:40:11;;;;;;;53.73;22.57;;;1.00;99.90;;;;;;4934194;29;20199;-83
2023/11/19 00:42:38;;;;;;;49.73;22.67;;;1.00;99.90;;;;;;4935787;29;20198;-83
2023/11/19 00:45:09;;;;;;;54.27;23.57;;;1.00;99.90;;;;;;4918704;29;20578;-82
2023/11/19 00:47:37;;;;;;;55.83;23.43;;;1.00;99.90;;;;;;4918406;29;20244;-81
2023/11/19 00:50:05;;;;;;;50.83;22.33;;;1.00;99.90;;;;;;4934708;29;20206;-81
2023/11/19 00:52:32;;;;;;;51.20;21.33;;;1.00;99.90;;;;;;4934487;29;20268;-83
2023/11/19 00:54:59;;;;;;;53.83;22.93;;;0.90;99.90;;;;;;4935021;29;20194;-83
2023/11/19 00:57:27;;;;;;;50.00;22.27;;;1.00;99.90;;;;;;4937442;29;20260;-82
2023/11/19 00:59:54;;;;;;;52.80;22.93;;;1.00;99.90;;;;;;4937592;29;20199;-83
2023/11/19 01:02:21;;;;;;;53.60;22.53;;;1.00;99.90;;;;;;4937273;29;20230;-83
2023/11/19 01:04:48;;;;;;;50.07;22.23;;;1.00;99.90;;;;;;4935113;29;20226;-83
2023/11/19 01:07:16;;;;;;;49.10;21.77;;;1.00;99.90;;;;;;4935446;29;20221;-83
2023/11/19 01:09:43;;;;;;;49.57;21.90;;;1.00;99.90;;;;;;4917980;29;20285;-83
2023/11/19 01:12:10;;;;;;;50.33;21.77;;;1.00;99.90;;;;;;4937089;29;20225;-83
2023/11/19 01:14:38;;;;;;;50.57;21.97;;;1.00;99.90;;;;;;4938829;29;20197;-82
2023/11/19 01:17:05;;;;;;;51.40;22.30;;;1.00;99.90;;;;;;4941316;29;20205;-83
2023/11/19 01:19:32;;;;;;;53.27;22.13;;;1.00;99.90;;;;;;4924024;29;20199;-83
2023/11/19 01:22:00;;;;;;;52.60;22.73;;;1.00;99.90;;;;;;4943539;29;20197;-83
2023/11/19 01:24:28;;;;;;;53.67;23.67;;;0.90;99.90;;;;;;4940700;29;20196;-84
2023/11/19 01:26:57;;;;;;;52.93;22.67;;;0.90;99.90;;;;;;4948808;29;20630;-81
2023/11/19 01:29:24;;;;;;;51.67;22.60;;;0.90;99.90;;;;;;4937656;29;20221;-83
2023/11/19 01:31:51;;;;;;;52.93;22.70;;;0.90;99.90;;;;;;4921531;29;20209;-83
2023/11/19 01:34:18;;;;;;;56.33;23.43;;;0.90;99.90;;;;;;4938804;29;20250;-83
2023/11/19 01:36:48;;;;;;;51.67;21.23;;;1.00;99.90;;;;;;4938638;29;20201;-83
2023/11/19 01:39:16;;;;;;;54.07;23.20;;;0.80;99.90;;;;;;4938758;29;20208;-83
2023/11/19 01:41:43;;;;;;;55.40;23.63;;;0.90;99.90;;;;;;4921040;29;20241;-83
2023/11/19 01:44:14;;;;;;;56.03;22.77;;;0.90;99.90;;;;;;4938636;29;20212;-83
2023/11/19 01:46:43;;;;;;;56.03;23.67;;;0.90;99.90;;;;;;4937389;29;20308;-83
2023/11/19 01:49:13;;;;;;;55.77;22.67;;;0.90;99.90;;;;;;4938535;29;20203;-83
2023/11/19 01:51:41;;;;;;;57.83;23.00;;;0.90;99.90;;;;;;4938480;29;20202;-83
2023/11/19 01:54:08;;;;;;;52.47;23.90;;;0.90;99.90;;;;;;4938747;29;20295;-83
2023/11/19 01:56:40;;;;;;;56.50;22.20;;;1.00;99.90;;;;;;4938443;29;20222;-83
2023/11/19 01:59:09;;;;;;;54.77;23.07;;;0.90;99.90;;;;;;4938536;29;20601;-83
2023/11/19 02:01:39;;;;;;;52.30;22.87;;;0.90;99.90;;;;;;4936701;29;20203;-83
2023/11/19 02:04:08;;;;;;;53.93;21.67;;;0.90;99.90;;;;;;4938066;29;20231;-83
2023/11/19 02:06:40;;;;;;;47.80;21.77;;;0.90;99.90;;;;;;4921355;29;20249;-83
2023/11/19 02:09:08;;;;;;;49.30;21.90;;;0.90;99.90;;;;;;4937296;29;20202;-83
2023/11/19 02:11:35;;;;;;;51.27;21.67;;;0.90;99.90;;;;;;4936594;29;20266;-84
2023/11/19 02:14:06;;;;;;;53.77;21.87;;;0.90;99.90;;;;;;4905527;29;20552;-84
2023/11/19 02:16:34;;;;;;;50.07;21.80;;;0.90;99.90;;;;;;4937795;29;20235;-83
2023/11/19 02:19:02;;;;;;;54.03;22.00;;;0.90;99.90;;;;;;4936635;29;20687;-83
2023/11/19 02:21:29;;;;;;;52.27;22.67;;;1.00;99.90;;;;;;4936686;29;20229;-83
2023/11/19 02:23:57;;;;;;;55.30;22.37;;;0.90;99.90;;;;;;4937459;29;20227;-84
2023/11/19 02:27:02;;;;;;;55.07;22.77;;;0.90;99.90;;;;;;4937442;29;20270;-84
2023/11/19 02:29:29;;;;;;;54.20;23.03;;;0.90;99.90;;;;;;4920826;29;20206;-84
2023/11/19 02:31:56;;;;;;;55.27;23.57;;;0.90;99.90;;;;;;4936677;29;20613;-83
2023/11/19 02:34:23;;;;;;;54.03;22.97;;;0.90;99.90;;;;;;4937473;29;20251;-83
2023/11/19 02:36:50;;;;;;;55.90;22.03;;;0.90;99.90;;;;;;4904800;29;20206;-83
2023/11/19 02:39:21;;;;;;;56.40;22.73;;;1.00;99.90;;;;;;4936254;29;20238;-83
2023/11/19 02:41:52;;;;;;;54.67;21.90;;;1.00;99.90;;;;;;4920480;29;20679;-83
2023/11/19 02:44:19;;;;;;;48.33;20.50;;;1.00;99.90;;;;;;4937803;29;20287;-83
2023/11/19 02:46:48;;;;;;;50.83;20.90;;;1.10;99.90;;;;;;4935917;29;20758;-83
2023/11/19 02:49:15;;;;;;;51.90;20.10;;;0.90;99.90;;;;;;4919915;29;20212;-83
2023/11/19 02:51:43;;;;;;;48.10;20.13;;;0.90;99.90;;;;;;4936294;29;20203;-83
2023/11/19 02:54:10;;;;;;;54.00;21.40;;;0.90;99.90;;;;;;4935951;29;20197;-83
2023/11/19 02:56:38;;;;;;;44.43;19.10;;;0.90;99.90;;;;;;4935910;29;20225;-83
2023/11/19 02:59:15;;;;;;;48.00;18.87;;;0.80;99.90;;;;;;4919603;29;20301;-83
2023/11/19 03:01:43;;;;;;;52.53;21.10;;;0.70;99.90;;;;;;4935716;29;20213;-83
2023/11/19 03:04:12;;;;;;;48.03;20.07;;;0.70;99.90;;;;;;4935691;29;20277;-84
2023/11/19 03:06:39;;;;;;;51.70;21.20;;;0.70;99.90;;;;;;4936062;29;20218;-83
2023/11/19 03:09:10;;;;;;;46.43;19.40;;;0.80;99.90;;;;;;4935865;29;20214;-83
2023/11/19 03:11:38;;;;;;;51.70;20.40;;;0.80;99.90;;;;;;4919578;29;20215;-83
2023/11/19 03:14:06;;;;;;;49.17;19.40;;;0.80;99.90;;;;;;4935643;29;20244;-83
2023/11/19 03:16:33;;;;;;;51.03;21.57;;;0.80;99.90;;;;;;4935499;29;20678;-83
2023/11/19 03:19:00;;;;;;;50.13;20.17;;;0.90;99.90;;;;;;4935402;29;20198;-83
2023/11/19 03:21:31;;;;;;;53.17;20.83;;;0.90;99.90;;;;;;4935412;29;20189;-83
2023/11/19 03:24:00;;;;;;;49.70;20.30;;;0.90;99.90;;;;;;4919445;29;20199;-83
2023/11/19 03:26:27;;;;;;;54.90;21.07;;;1.00;99.90;;;;;;4919205;29;20234;-83
2023/11/19 03:28:56;;;;;;;50.03;21.60;;;1.00;99.90;;;;;;4935625;29;20293;-83
2023/11/19 03:31:24;;;;;;;49.67;20.47;;;1.00;99.90;;;;;;4935269;29;20193;-82
2023/11/19 03:33:52;;;;;;;50.90;20.67;;;1.00;99.90;;;;;;4935232;29;20211;-83
2023/11/19 03:36:22;;;;;;;51.53;20.97;;;0.90;99.90;;;;;;4934003;29;20644;-83
2023/11/19 03:38:49;;;;;;;51.70;20.23;;;1.00;99.90;;;;;;4935296;29;20207;-83
2023/11/19 03:41:17;;;;;;;48.90;20.57;;;1.00;99.90;;;;;;4936095;29;20213;-83
2023/11/19 03:43:44;;;;;;;53.57;20.27;;;1.00;99.90;;;;;;4919382;29;20232;-83
2023/11/19 03:46:20;;;;;;;49.83;21.10;;;1.00;99.90;;;;;;4936249;29;20202;-83
2023/11/19 03:48:50;;;;;;;49.07;20.67;;;1.00;99.90;;;;;;4935134;29;20204;-83
2023/11/19 03:51:17;;;;;;;50.23;20.37;;;1.00;99.90;;;;;;4935247;29;20205;-83
2023/11/19 03:53:45;;;;;;;53.00;20.63;;;1.00;99.90;;;;;;4936142;29;20226;-83
2023/11/19 03:56:13;;;;;;;49.50;20.67;;;1.10;99.90;;;;;;4936056;29;20221;-83
2023/11/19 03:58:40;;;;;;;51.80;20.60;;;1.10;99.90;;;;;;4936117;29;20555;-83
2023/11/19 04:01:14;;;;;;;52.17;21.23;;;1.00;99.90;;;;;;4936297;29;20265;-82
2023/11/19 04:03:42;;;;;;;57.10;21.73;;;1.00;99.90;;;;;;4934853;29;20204;-83
2023/11/19 04:06:12;;;;;;;51.97;20.73;;;1.00;99.90;;;;;;4936265;29;20537;-82
2023/11/19 04:08:39;;;;;;;50.30;20.93;;;1.00;99.90;;;;;;4936057;29;20335;-82
2023/11/19 04:11:06;;;;;;;53.67;21.13;;;1.10;99.90;;;;;;4934746;29;20280;-83
2023/11/19 04:13:33;;;;;;;57.60;21.67;;;1.10;99.90;;;;;;4936307;29;20198;-83
2023/11/19 04:16:01;;;;;;;56.97;22.13;;;1.00;99.90;;;;;;4918727;29;20205;-83
2023/11/19 04:18:28;;;;;;;53.67;22.00;;;0.90;99.90;;;;;;4934730;29;20326;-83
2023/11/19 04:20:56;;;;;;;57.07;22.00;;;1.00;99.90;;;;;;4934603;29;20210;-83
2023/11/19 04:23:24;;;;;;;53.30;21.23;;;1.00;99.90;;;;;;4934640;29;20258;-83
2023/11/19 04:25:51;;;;;;;56.93;20.57;;;1.00;99.90;;;;;;4940954;29;20220;-82
2023/11/19 04:28:18;;;;;;;56.83;21.17;;;0.90;99.90;;;;;;4937974;29;20215;-83
2023/11/19 04:30:45;;;;;;;48.90;19.83;;;0.90;99.90;;;;;;4937824;29;20208;-83
2023/11/19 04:33:13;;;;;;;56.40;21.43;;;0.70;99.90;;;;;;4934507;29;20203;-82
2023/11/19 04:35:39;;;;;;;55.17;20.97;;;0.80;99.90;;;;;;4935895;29;20284;-83
2023/11/19 04:38:07;;;;;;;53.57;21.03;;;0.80;99.90;;;;;;4935803;29;20202;-83
2023/11/19 04:40:33;;;;;;;52.73;20.57;;;0.80;99.90;;;;;;4934120;29;20304;-83
2023/11/19 04:43:01;;;;;;;50.97;20.97;;;0.80;99.90;;;;;;4935592;29;20198;-83
2023/11/19 04:45:28;;;;;;;55.37;20.87;;;0.90;99.90;;;;;;4918199;29;20218;-83
2023/11/19 04:47:55;;;;;;;50.47;19.97;;;0.90;99.90;;;;;;4934376;29;20647;-83
2023/11/19 04:50:22;;;;;;;47.20;19.33;;;0.90;99.90;;;;;;4934670;29;20651;-83
2023/11/19 04:52:49;;;;;;;51.63;19.43;;;0.90;99.90;;;;;;4935437;29;20267;-82
2023/11/19 04:55:16;;;;;;;50.80;19.90;;;0.90;99.90;;;;;;4934343;29;20208;-82
2023/11/19 04:57:44;;;;;;;48.93;19.27;;;1.00;99.90;;;;;;4918186;29;20283;-82
2023/11/19 05:00:11;;;;;;;50.73;19.40;;;0.80;99.90;;;;;;4918486;29;20296;-82
2023/11/19 05:02:42;;;;;;;48.00;19.03;;;0.80;99.90;;;;;;4935203;29;20237;-82
2023/11/19 05:05:09;;;;;;;48.73;19.70;;;0.70;99.90;;;;;;4933836;29;20270;-83
2023/11/19 05:07:37;;;;;;;50.70;20.00;;;0.70;99.90;;;;;;4934888;29;20257;-83
2023/11/19 05:10:05;;;;;;;47.83;20.07;;;0.80;99.90;;;;;;4933898;29;20190;-83
2023/11/19 05:12:32;;;;;;;52.37;20.57;;;0.70;99.90;;;;;;4934945;29;20208;-83
2023/11/19 05:15:00;;;;;;;47.37;19.57;;;0.70;99.90;;;;;;4933655;29;20203;-83
2023/11/19 05:17:27;;;;;;;50.97;20.70;;;0.70;99.90;;;;;;4934133;29;20281;-83
2023/11/19 05:19:54;;;;;;;48.90;19.17;;;0.80;99.90;;;;;;4936060;29;20197;-83
2023/11/19 05:22:21;;;;;;;50.73;20.23;;;0.70;99.90;;;;;;4935063;29;20230;-83
2023/11/19 05:24:49;;;;;;;45.17;18.70;;;0.80;99.90;;;;;;4933938;29;20195;-83
2023/11/19 05:27:16;;;;;;;48.67;19.47;;;0.80;99.90;;;;;;4933380;29;20697;-84
2023/11/19 05:29:43;;;;;;;47.13;19.10;;;0.80;99.90;;;;;;4934940;29;20216;-83
2023/11/19 05:32:11;;;;;;;45.83;19.17;;;0.80;99.90;;;;;;4917879;29;20199;-83
2023/11/19 05:34:38;;;;;;;48.00;19.10;;;0.80;99.90;;;;;;4933994;29;20289;-84
2023/11/19 05:37:18;;;;;;;47.40;19.30;;;0.80;99.90;;;;;;4933568;29;20674;-83
2023/11/19 05:39:46;;;;;;;49.00;19.70;;;0.90;99.90;;;;;;4920444;29;20202;-83
2023/11/19 05:42:13;;;;;;;46.47;18.90;;;0.90;99.90;;;;;;4934949;29;20318;-83
2023/11/19 05:44:40;;;;;;;45.00;17.80;;;1.00;99.90;;;;;;4935911;29;20647;-83
2023/11/19 05:47:08;;;;;;;49.00;20.37;;;0.90;99.90;;;;;;4933539;29;20326;-83
2023/11/19 05:49:35;;;;;;;47.03;18.93;;;1.00;99.90;;;;;;4935406;29;20246;-81
2023/11/19 05:52:03;;;;;;;45.03;17.90;;;0.90;99.90;;;;;;4922248;29;20246;-82
2023/11/19 05:54:31;;;;;;;46.97;18.60;;;1.00;99.90;;;;;;4933548;29;20199;-82
2023/11/19 05:56:59;;;;;;;45.27;18.33;;;0.90;99.90;;;;;;4933486;29;20230;-89
2023/11/19 05:59:26;;;;;;;45.70;18.20;;;0.70;99.90;;;;;;4935965;29;20195;-83
2023/11/19 06:01:53;;;;;;;44.50;17.70;;;0.70;99.90;;;;;;4937054;29;20723;-84
2023/11/19 06:04:21;;;;;;;46.03;18.47;;;0.80;99.90;;;;;;4936690;29;20226;-87
2023/11/19 06:06:48;;;;;;;44.33;18.53;;;0.80;99.90;;;;;;4936736;29;20190;-84
2023/11/19 06:09:18;;;;;;;41.13;17.20;;;0.90;99.90;;;;;;4937057;29;20673;-84
2023/11/19 06:11:47;;;;;;;41.73;17.70;;;0.80;99.90;;;;;;4936741;29;20238;-84
2023/11/19 06:14:14;;;;;;;41.87;17.13;;;0.90;99.90;;;;;;4937015;29;20292;-85
2023/11/19 06:16:42;;;;;;;37.83;17.00;;;0.80;99.90;;;;;;4936487;29;20195;-85
2023/11/19 06:19:09;;;;;;;39.67;16.47;;;1.00;99.90;;;;;;4936619;29;20784;-84
2023/11/19 06:21:37;;;;;;;34.40;15.30;;;1.00;99.90;;;;;;4920830;29;20227;-85
2023/11/19 06:24:05;;;;;;;34.90;14.93;;;0.90;99.90;;;;;;4920946;29;20672;-85
2023/11/19 06:26:32;;;;;;;31.37;14.23;;;0.90;99.90;;;;;;4936716;29;20226;-85
2023/11/19 06:28:59;;;;;;;33.60;14.50;;;0.90;99.90;;;;;;4937648;29;20222;-86
2023/11/19 06:31:26;;;;;;;28.27;13.33;;;0.90;99.90;;;;;;4920843;29;20194;-86
2023/11/19 06:33:54;;;;;;;33.33;13.53;;;0.90;99.90;;;;;;4936247;29;20225;-86
2023/11/19 06:36:21;;;;;;;31.00;13.47;;;0.80;99.90;;;;;;4937356;29;20200;-86
2023/11/19 06:38:49;;;;;;;29.13;13.50;;;0.80;99.90;;;;;;4936175;29;20470;-86
2023/11/19 06:41:16;;;;;;;27.10;12.33;;;0.90;99.90;;;;;;4936074;29;20214;-85
2023/11/19 06:43:43;;;;;;;26.90;12.73;;;0.90;99.90;;;;;;4920420;29;20215;-86
2023/11/19 06:46:17;;;;;;;26.53;12.33;;;0.80;99.90;;;;;;4920293;29;20553;-85
2023/11/19 06:48:45;;;;;;;26.70;12.83;;;0.90;99.90;;;;;;4920204;29;20227;-84
2023/11/19 06:51:12;;;;;;;26.97;12.33;;;0.90;99.90;;;;;;4937644;29;20603;-83
2023/11/19 06:53:40;;;;;;;22.87;11.83;;;0.90;99.90;;;;;;4935973;29;20202;-83
2023/11/19 06:56:21;;;;;;;23.30;11.10;;;1.00;99.90;;;;;;4935764;29;20254;-83
2023/11/19 06:58:49;;;;;;;21.13;11.10;;;0.90;99.90;;;;;;4936142;29;20229;-84
2023/11/19 07:01:17;;;;;;;23.57;11.07;;;0.90;99.90;;;;;;4936428;29;20257;-85
2023/11/19 07:03:48;;;;;;;19.73;10.57;;;0.80;99.90;;;;;;4919632;29;20201;-83
2023/11/19 07:06:16;;;;;;;21.07;10.90;;;0.70;99.90;;;;;;4935742;29;20225;-83
2023/11/19 07:08:46;;;;;;;19.90;10.47;;;0.50;99.90;;;;;;4936019;29;20241;-83
2023/11/19 07:11:16;;;;;;;20.77;10.50;;;0.40;99.90;;;;;;4936709;29;20233;-84
2023/11/19 07:13:45;;;;;;;20.47;10.30;;;0.50;99.90;;;;;;4919864;29;20638;-84
2023/11/19 07:16:14;;;;;;;21.27;11.00;;;0.50;99.90;;;;;;4936785;29;20199;-84
2023/11/19 07:18:43;;;;;;;20.87;10.87;;;0.60;99.90;;;;;;4920053;29;20198;-83
2023/11/19 07:21:11;;;;;;;20.87;10.80;;;0.60;99.90;;;;;;4935300;29;20210;-84
2023/11/19 07:23:38;;;;;;;24.27;11.30;;;0.60;99.90;;;;;;4935478;29;20255;-84
2023/11/19 07:26:08;;;;;;;23.60;11.00;;;0.70;99.90;;;;;;4936506;29;20724;-84
2023/11/19 07:28:35;;;;;;;21.00;11.30;;;0.80;99.90;;;;;;4919207;29;20229;-82
2023/11/19 07:31:02;;;;;;;24.00;11.80;;;0.90;99.90;;;;;;4935529;29;20562;-84
2023/11/19 07:33:29;;;;;;;21.77;11.47;;;0.90;99.90;;;;;;4935162;29;20724;-84
2023/11/19 07:35:56;;;;;;;23.30;11.47;;;0.90;99.90;;;;;;4937413;29;20244;-85
2023/11/19 07:38:23;;;;;;;21.03;10.93;;;0.80;99.90;;;;;;4939831;29;20273;-90
2023/11/19 07:40:51;;;;;;;22.73;11.43;;;0.90;99.90;;;;;;4941149;29;20218;-85
2023/11/19 07:43:21;;;;;;;21.73;11.10;;;0.90;99.90;;;;;;4941380;29;20219;-88
2023/11/19 07:45:48;;;;;;;24.40;11.93;;;1.00;99.90;;;;;;4938994;29;20245;-86
2023/11/19 07:48:15;;;;;;;21.90;11.63;;;0.90;99.90;;;;;;4936098;29;20306;-86
2023/11/19 07:50:42;;;;;;;23.50;11.70;;;1.00;99.90;;;;;;4935238;29;20199;-86
2023/11/19 07:53:10;;;;;;;24.60;12.20;;;0.80;99.90;;;;;;4936052;29;20202;-85
2023/11/19 07:55:37;;;;;;;20.10;11.37;;;0.80;99.90;;;;;;4935188;29;20329;-86
2023/11/19 07:58:08;;;;;;;21.20;10.87;;;0.70;99.90;;;;;;4936237;29;20201;-88
2023/11/19 08:00:36;;;;;;;24.47;12.20;;;0.70;99.90;;;;;;4920562;29;20213;-86
2023/11/19 08:03:04;;;;;;;23.47;11.73;;;0.80;99.90;;;;;;4944242;29;20223;-84
2023/11/19 08:05:31;;;;;;;23.40;11.53;;;0.90;99.90;;;;;;4935420;29;20222;-85
2023/11/19 08:07:58;;;;;;;23.30;11.57;;;0.90;99.90;;;;;;4935975;29;20218;-85
2023/11/19 08:10:26;;;;;;;24.07;12.20;;;0.90;99.90;;;;;;4935433;29;20240;-86
2023/11/19 08:12:55;;;;;;;24.97;11.77;;;0.80;99.90;;;;;;4919218;29;20217;-87
2023/11/19 08:15:22;;;;;;;24.30;12.07;;;0.90;99.90;;;;;;4934651;29;20208;-87
2023/11/19 08:17:53;;;;;;;23.77;11.83;;;1.00;99.90;;;;;;4935816;29;20202;-88
2023/11/19 08:20:20;;;;;;;24.57;12.47;;;1.00;99.90;;;;;;4934667;29;20223;-88
2023/11/19 08:22:48;;;;;;;23.03;11.70;;;1.00;99.90;;;;;;4918253;29;20201;-88
2023/11/19 08:25:15;;;;;;;25.13;12.13;;;1.10;99.90;;;;;;4934747;29;20208;-88
2023/11/19 08:27:43;;;;;;;24.67;12.27;;;1.10;99.90;;;;;;4936169;29;20301;-88
2023/11/19 08:30:10;;;;;;;24.87;12.40;;;1.20;99.90;;;;;;4936239;29;20573;-88
2023/11/19 08:32:38;;;;;;;22.77;12.20;;;1.20;99.90;;;;;;4918535;29;20200;-87
2023/11/19 08:35:06;;;;;;;22.67;11.10;;;1.10;99.90;;;;;;4935649;29;20290;-88
2023/11/19 08:37:36;;;;;;;23.40;11.57;;;1.10;99.90;;;;;;4918316;29;20222;-87
2023/11/19 08:40:04;;;;;;;21.23;11.30;;;1.10;99.90;;;;;;4918768;29;20565;-87
2023/11/19 08:42:31;;;;;;;22.90;11.53;;;1.00;99.90;;;;;;4935597;29;20194;-87
2023/11/19 08:44:58;;;;;;;24.03;12.17;;;1.10;99.90;;;;;;4935381;29;20730;-88
2023/11/19 08:47:26;;;;;;;23.60;11.60;;;1.20;99.90;;;;;;4935050;29;20222;-88
2023/11/19 08:49:53;;;;;;;22.47;11.53;;;1.30;99.90;;;;;;4918322;29;20735;-89
2023/11/19 08:52:23;;;;;;;25.70;11.63;;;1.20;99.90;;;;;;4936199;29;20198;-87
2023/11/19 08:54:50;;;;;;;22.43;11.33;;;1.40;99.90;;;;;;4933773;29;20286;-88
2023/11/19 08:57:17;;;;;;;23.30;12.37;;;1.40;99.90;;;;;;4935747;29;20227;-89
2023/11/19 08:59:45;;;;;;;22.30;11.57;;;1.50;99.90;;;;;;4918544;29;20479;-89
2023/11/19 09:02:13;;;;;;;21.67;11.30;;;1.50;99.90;;;;;;4933942;29;20198;-89
2023/11/19 09:04:40;;;;;;;22.33;10.77;;;1.50;99.90;;;;;;4934108;29;20227;-88
2023/11/19 09:07:09;;;;;;;19.47;10.93;;;1.50;99.90;;;;;;4934435;29;20202;-88
2023/11/19 09:09:36;;;;;;;19.33;10.27;;;1.50;99.90;;;;;;4939442;29;20266;-89
2023/11/19 09:12:04;;;;;;;21.17;10.77;;;1.50;99.90;;;;;;4934638;29;20218;-87
2023/11/19 09:14:31;;;;;;;22.67;11.00;;;1.40;99.90;;;;;;4934707;29;20297;-88
2023/11/19 09:16:58;;;;;;;21.87;11.50;;;1.30;99.90;;;;;;4935026;29;20287;-88
2023/11/19 09:19:28;;;;;;;22.47;11.53;;;1.30;99.90;;;;;;4934590;29;20233;-87
2023/11/19 09:21:55;;;;;;;21.23;11.07;;;1.40;99.90;;;;;;4918738;29;20210;-88
2023/11/19 09:24:22;;;;;;;25.00;12.13;;;1.50;99.90;;;;;;4936732;29;20286;-88
2023/11/19 09:26:50;;;;;;;23.13;12.00;;;1.50;99.90;;;;;;4919022;29;20246;-88
2023/11/19 09:29:17;;;;;;;23.17;11.90;;;1.50;99.90;;;;;;4918760;29;20625;-87
2023/11/19 09:31:44;;;;;;;24.00;12.83;;;1.50;99.90;;;;;;4919128;29;20212;-87
2023/11/19 09:34:11;;;;;;;23.97;11.93;;;1.50;99.90;;;;;;4936385;29;20281;-85
2023/11/19 09:36:43;;;;;;;24.47;12.43;;;1.50;99.90;;;;;;4939334;29;20207;-86
2023/11/19 09:39:14;;;;;;;26.33;12.70;;;1.50;99.90;;;;;;4938531;29;20719;-86
2023/11/19 09:41:42;;;;;;;23.97;12.53;;;1.50;99.90;;;;;;4937503;29;20214;-86
2023/11/19 09:44:11;;;;;;;22.73;11.43;;;1.50;99.90;;;;;;4938310;29;20221;-87
2023/11/19 09:46:42;;;;;;;25.23;12.70;;;1.50;99.90;;;;;;4937504;29;20203;-87
2023/11/19 09:49:11;;;;;;;26.70;12.90;;;1.60;99.90;;;;;;4937415;29;20278;-86
2023/11/19 09:51:38;;;;;;;25.77;13.23;;;1.60;99.90;;;;;;4937574;29;20307;-87
2023/11/19 09:54:07;;;;;;;23.23;12.43;;;1.70;99.90;;;;;;4937567;29;20201;-86
2023/11/19 09:56:37;;;;;;;22.50;12.07;;;1.70;99.90;;;;;;4939228;29;20223;-86
2023/11/19 09:59:05;;;;;;;23.63;11.77;;;1.70;99.90;;;;;;4922431;29;20726;-88
2023/11/19 10:01:34;;;;;;;26.17;12.93;;;1.50;99.90;;;;;;4922601;29;20348;-90
2023/11/19 10:04:01;;;;;;;25.43;13.50;;;1.40;99.90;;;;;;4939205;29;20202;-88
2023/11/19 10:06:29;;;;;;;26.00;12.73;;;1.50;99.90;;;;;;4939774;29;20663;-85
2023/11/19 10:08:56;;;;;;;25.03;13.07;;;1.40;99.90;;;;;;4938332;29;20226;-85
2023/11/19 10:11:23;;;;;;;24.43;12.07;;;1.30;99.90;;;;;;4938514;29;20218;-83
2023/11/19 10:13:52;;;;;;;25.10;11.97;;;1.30;99.90;;;;;;4937215;29;20198;-86
2023/11/19 10:16:19;;;;;;;23.70;11.83;;;1.10;99.90;;;;;;4938859;29;20750;-90
2023/11/19 10:18:50;;;;;;;24.77;12.43;;;1.20;99.90;;;;;;4939597;29;20197;-85
2023/11/19 10:21:18;;;;;;;26.57;13.07;;;1.30;99.90;;;;;;4938579;29;20199;-86
2023/11/19 10:23:57;;;;;;;24.83;12.83;;;1.40;99.90;;;;;;4939127;29;20247;-89
2023/11/19 10:26:24;;;;;;;23.87;12.47;;;1.50;99.90;;;;;;4938874;29;20218;-84
2023/11/19 10:28:51;;;;;;;23.93;12.27;;;1.50;99.90;;;;;;4939602;29;20226;-87
2023/11/19 10:31:22;;;;;;;22.47;12.50;;;1.60;99.90;;;;;;4939751;29;20691;-87
2023/11/19 10:33:50;;;;;;;22.40;12.27;;;1.70;99.90;;;;;;4938224;29;20225;-86
2023/11/19 10:36:17;;;;;;;26.27;13.03;;;1.70;99.90;;;;;;4920931;29;20533;-86
2023/11/19 10:38:55;;;;;;;25.83;12.80;;;1.60;99.90;;;;;;4938196;29;20200;-82
2023/11/19 10:41:32;;;;;;;22.83;11.67;;;1.60;99.90;;;;;;4920137;29;20222;-85
2023/11/19 10:44:00;;;;;;;22.80;12.33;;;1.60;99.90;;;;;;4937206;29;20204;-84
2023/11/19 10:46:41;;;;;;;22.80;12.37;;;1.60;99.90;;;;;;4936308;29;20198;-84
2023/11/19 10:49:09;;;;;;;23.43;12.70;;;1.50;99.90;;;;;;4923028;29;20256;-83
2023/11/19 10:51:36;;;;;;;22.83;12.97;;;1.50;99.90;;;;;;4939296;29;20272;-85
2023/11/19 10:54:06;;;;;;;23.73;11.83;;;1.60;99.90;;;;;;4938920;29;20548;-83
2023/11/19 10:56:34;;;;;;;22.97;12.07;;;1.60;99.90;;;;;;4944948;29;20298;-83
2023/11/19 10:59:03;;;;;;;23.50;11.83;;;1.60;99.90;;;;;;4953839;29;20201;-85
2023/11/19 11:01:50;;;;;;;23.23;12.10;;;1.60;99.90;;;;;;4943385;29;20202;-84
2023/11/19 11:04:24;;;;;;;25.50;12.67;;;1.70;99.90;;;;;;4936068;29;20727;-85
2023/11/19 11:06:54;;;;;;;25.67;12.43;;;1.70;99.90;;;;;;4937152;29;20596;-84
2023/11/19 11:09:21;;;;;;;24.43;11.73;;;1.60;99.90;;;;;;4919946;29;20649;-85
2023/11/19 11:11:52;;;;;;;23.53;12.50;;;1.40;99.90;;;;;;4936920;29;20214;-83
2023/11/19 11:14:22;;;;;;;25.03;12.00;;;1.40;99.90;;;;;;4937202;29;20198;-84
2023/11/19 11:16:51;;;;;;;23.77;12.43;;;1.50;99.90;;;;;;4941495;29;20203;-83
2023/11/19 11:19:19;;;;;;;27.40;12.47;;;1.50;99.90;;;;;;4937362;29;20205;-84
2023/11/19 11:21:53;;;;;;;23.80;12.30;;;1.40;99.90;;;;;;4938551;29;20197;-85
2023/11/19 11:24:41;;;;;;;21.90;11.80;;;1.30;99.90;;;;;;4919426;29;20740;-86
2023/11/19 11:27:40;;;;;;;25.70;12.17;;;1.30;99.90;;;;;;4936780;29;20234;-83
2023/11/19 11:30:50;;;;;;;25.83;12.50;;;1.30;99.90;;;;;;4935612;29;20233;-82
2023/11/19 11:34:06;;;;;;;27.60;12.77;;;1.30;99.90;;;;;;4933915;29;20221;-85
2023/11/19 11:36:48;;;;;;;25.07;11.97;;;1.30;99.90;;;;;;4896249;29;20627;-84
2023/11/19 11:39:16;;;;;;;26.23;13.17;;;1.40;99.90;;;;;;4896201;29;20207;-84
2023/11/19 11:41:44;;;;;;;25.57;13.10;;;1.40;99.90;;;;;;4896142;29;20574;-86
2023/11/19 11:44:12;;;;;;;26.17;12.93;;;1.40;99.90;;;;;;4881442;29;20631;-87
2023/11/19 11:46:39;;;;;;;28.23;13.50;;;1.30;99.90;;;;;;4896142;29;20218;-87
2023/11/19 11:49:07;;;;;;;25.43;12.63;;;1.30;99.90;;;;;;4880558;29;20237;-80
2023/11/19 11:51:44;;;;;;;24.37;12.97;;;1.20;99.90;;;;;;4895981;29;20210;-86
2023/11/19 11:54:26;;;;;;;25.67;13.80;;;1.30;99.90;;;;;;4880596;29;20206;-84
2023/11/19 11:57:12;;;;;;;26.87;13.97;;;1.30;99.90;;;;;;4879720;29;20237;-88
2023/11/19 11:59:44;;;;;;;26.53;13.57;;;1.30;99.90;;;;;;4896187;29;20696;-89
2023/11/19 12:02:13;;;;;;;27.77;13.70;;;1.30;99.90;;;;;;4896312;29;20269;-89
2023/11/19 12:04:41;;;;;;;27.13;13.23;;;1.40;99.90;;;;;;4880276;29;20273;-86
2023/11/19 12:07:13;;;;;;;26.37;13.37;;;1.40;99.90;;;;;;4895906;29;20287;-81
2023/11/19 12:09:42;;;;;;;33.10;13.73;;;1.50;99.90;;;;;;4864461;29;20596;-85
2023/11/19 12:12:27;;;;;;;27.43;13.03;;;1.40;99.90;;;;;;4900822;29;20755;-85
2023/11/19 12:15:04;;;;;;;26.40;13.23;;;1.40;99.90;;;;;;4935990;29;20226;-87
2023/11/19 12:17:34;;;;;;;25.70;12.93;;;1.40;99.90;;;;;;4936265;29;20222;-86
2023/11/19 12:20:05;;;;;;;27.13;13.67;;;1.50;99.90;;;;;;4935762;29;20257;-85
2023/11/19 12:22:32;;;;;;;27.97;13.90;;;1.40;99.90;;;;;;4934546;29;20207;-87
2023/11/19 12:24:59;;;;;;;26.93;13.27;;;1.50;99.90;;;;;;4935818;29;20212;-89
2023/11/19 12:27:27;;;;;;;26.13;13.00;;;1.50;99.90;;;;;;4935999;29;20201;-88
2023/11/19 12:29:56;;;;;;;25.10;13.33;;;1.50;99.90;;;;;;4934352;29;20717;-86
2023/11/19 12:32:24;;;;;;;30.17;13.67;;;1.50;99.90;;;;;;4933939;29;20233;-89
2023/11/19 12:34:51;;;;;;;26.53;13.97;;;1.40;99.90;;;;;;4918724;29;20202;-86
2023/11/19 12:37:18;;;;;;;26.17;14.20;;;1.50;99.90;;;;;;4934201;29;20569;-87
2023/11/19 12:39:45;;;;;;;28.00;14.00;;;1.60;99.90;;;;;;4934041;29;20225;-88
2023/11/19 12:42:13;;;;;;;27.13;14.20;;;1.60;99.90;;;;;;4935326;29;20677;-86
2023/11/19 12:44:56;;;;;;;27.23;14.07;;;1.60;99.90;;;;;;4918555;29;20230;-90